Time;durP1;ratioP1;P1;durP2;ratioP2;P2;SDS_P1;SDS_P2;PMS_P1;PMS_P2;Temp;Humidity;BMP_temperature;BMP_pressure;BME280_temperature;BME280_humidity;BME280_pressure;Samples;Min_cycle;Max_cycle;Signal;HPM_P1;HPM_P2
2022/06/12 00:01:00;;;;;;;5.80;4.90;;;;;;;22.82;48.04;100007.52;117388;1182;21907;-55
2022/06/12 00:03:27;;;;;;;4.80;4.20;;;;;;;22.81;48.12;100010.80;117368;1186;23538;-51
2022/06/12 00:05:56;;;;;;;5.70;4.60;;;;;;;22.80;48.19;100009.23;117460;1182;22317;-51
2022/06/12 00:08:23;;;;;;;5.60;4.80;;;;;;;22.78;48.24;100008.08;117380;1182;22915;-51
2022/06/12 00:10:51;;;;;;;5.40;4.90;;;;;;;22.77;48.21;100005.13;117370;1183;23554;-51
2022/06/12 00:13:22;;;;;;;5.50;4.90;;;;;;;22.77;48.34;100001.44;117419;1185;21845;-51
2022/06/12 00:15:49;;;;;;;8.30;5.00;;;;;;;22.76;48.33;99998.27;117427;1183;22957;-56
2022/06/12 00:18:16;;;;;;;6.30;4.70;;;;;;;22.74;48.33;100002.85;117358;1183;21954;-51
2022/06/12 00:20:43;;;;;;;6.50;5.20;;;;;;;22.72;48.51;100005.11;117438;1183;22933;-51
2022/06/12 00:23:14;;;;;;;5.30;4.70;;;;;;;22.72;48.51;100005.45;117423;1182;22087;-56
2022/06/12 00:25:41;;;;;;;6.00;5.40;;;;;;;22.70;48.48;100004.72;117456;1182;23458;-51
2022/06/12 00:28:08;;;;;;;5.90;4.90;;;;;;;22.69;48.52;100007.86;117400;1183;22924;-57
2022/06/12 00:30:35;;;;;;;5.40;4.80;;;;;;;22.68;48.61;100002.21;117524;1186;23463;-51
2022/06/12 00:33:02;;;;;;;5.20;4.70;;;;;;;22.68;48.56;99998.60;117413;1186;23605;-57
2022/06/12 00:35:33;;;;;;;6.30;4.90;;;;;;;22.66;48.63;99996.41;117381;1186;21856;-56
2022/06/12 00:38:00;;;;;;;;;;;;;;;22.64;48.69;99992.47;117386;1185;23613;-51
2022/06/12 00:40:27;;;;;;;5.30;4.40;;;;;;;22.57;48.84;99992.95;117477;1186;23436;-51
2022/06/12 00:42:57;;;;;;;5.60;4.80;;;;;;;22.51;49.03;99989.25;117394;1186;22153;-50
2022/06/12 00:45:30;;;;;;;6.10;4.70;;;;;;;22.47;49.18;99988.82;117424;1182;22975;-50
2022/06/12 00:48:01;;;;;;;6.50;4.90;;;;;;;22.42;49.23;99992.65;117375;1186;23449;-50
2022/06/12 00:50:30;;;;;;;5.50;4.40;;;;;;;22.40;49.24;99990.45;117425;1182;23563;-50
2022/06/12 00:52:56;;;;;;;6.30;5.00;;;;;;;22.43;49.23;99987.63;117927;1182;23519;-50
2022/06/12 00:55:41;;;;;;;5.10;4.50;;;;;;;22.45;49.17;99991.28;117347;1183;23547;-50
2022/06/12 00:58:11;;;;;;;7.80;4.40;;;;;;;22.45;49.20;99990.70;117338;1182;22933;-50
2022/06/12 01:00:39;;;;;;;5.70;4.90;;;;;;;22.45;49.35;99994.14;117484;1186;24153;-56
2022/06/12 01:03:06;;;;;;;6.50;4.80;;;;;;;22.43;49.24;99993.48;117427;1184;23284;-56
2022/06/12 01:08:19;;;;;;;8.60;5.20;;;;;;;22.34;49.55;99997.88;117318;1183;21938;-50
2022/06/12 01:10:48;;;;;;;5.70;4.70;;;;;;;22.30;49.65;99996.30;117417;1186;23675;-50
2022/06/12 01:13:20;;;;;;;7.40;4.60;;;;;;;22.28;49.74;99991.11;117409;1186;21846;-50
2022/06/12 01:15:50;;;;;;;6.60;5.10;;;;;;;22.26;49.78;99988.58;117345;1182;21908;-57
2022/06/12 01:18:19;;;;;;;6.10;5.00;;;;;;;22.25;49.75;99986.67;117396;1185;21941;-50
2022/06/12 01:21:25;;;;;;;7.10;4.40;;;;;;;22.24;49.75;99986.02;117431;1183;23541;-54
2022/06/12 01:24:02;;;;;;;5.20;4.70;;;;;;;22.20;49.76;99988.23;117353;1186;21992;-56
2022/06/12 01:26:53;;;;;;;6.80;4.90;;;;;;;22.18;49.85;99988.41;117349;1183;21892;-50
2022/06/12 01:29:51;;;;;;;6.70;4.70;;;;;;;22.15;49.77;99985.01;117384;1182;24148;-57
2022/06/12 01:32:45;;;;;;;7.80;4.60;;;;;;;22.12;49.99;99987.31;117350;1183;23533;-56
2022/06/12 01:35:16;;;;;;;5.70;4.30;;;;;;;22.09;49.95;99987.90;117278;1185;23443;-50
2022/06/12 01:37:43;;;;;;;6.90;5.50;;;;;;;22.04;49.97;99987.32;117316;1186;22103;-56
2022/06/12 01:40:19;;;;;;;5.90;4.60;;;;;;;22.01;50.06;99989.89;117353;1182;24146;-50
2022/06/12 01:43:04;;;;;;;5.80;4.80;;;;;;;21.97;50.18;99986.52;117331;1183;22972;-56
2022/06/12 01:45:47;;;;;;;6.50;4.50;;;;;;;21.93;50.11;99986.42;117312;1185;23548;-49
2022/06/12 01:48:28;;;;;;;6.00;4.60;;;;;;;21.91;50.19;99989.65;117371;1182;21896;-55
2022/06/12 01:51:32;;;;;;;7.00;4.60;;;;;;;21.88;50.34;99993.02;117346;1185;23541;-50
2022/06/12 01:54:07;;;;;;;7.40;4.40;;;;;;;21.86;50.34;99991.59;117280;1186;23541;-50
2022/06/12 01:56:45;;;;;;;6.40;5.20;;;;;;;21.83;50.39;99991.41;117382;1182;23442;-56
2022/06/12 01:59:22;;;;;;;7.40;4.90;;;;;;;21.81;50.39;99990.27;117390;1185;21865;-50
2022/06/12 02:01:54;;;;;;;5.30;4.50;;;;;;;21.80;50.39;99988.91;117368;1183;24143;-50
2022/06/12 02:04:47;;;;;;;6.00;4.80;;;;;;;21.78;50.47;99989.39;117387;1183;22946;-55
2022/06/12 02:07:21;;;;;;;6.80;5.10;;;;;;;21.76;50.58;99993.81;117274;1182;23636;-55
2022/06/12 02:09:56;;;;;;;5.70;5.10;;;;;;;21.75;50.60;99995.65;117327;1183;22813;-49
2022/06/12 02:15:18;;;;;;;7.10;4.80;;;;;;;21.75;50.74;100004.23;117313;1184;23541;-56
2022/06/12 02:17:49;;;;;;;6.80;4.60;;;;;;;21.73;50.81;100003.29;117373;1185;22979;-56
2022/06/12 02:20:18;;;;;;;6.10;4.70;;;;;;;21.74;50.71;100001.48;117258;1186;21861;-50
2022/06/12 02:22:47;;;;;;;6.30;5.20;;;;;;;21.77;50.75;100000.02;117399;1186;22912;-56
2022/06/12 02:25:21;;;;;;;6.60;5.00;;;;;;;21.81;50.72;99996.67;117449;1186;23628;-49
2022/06/12 02:28:11;;;;;;;6.50;4.90;;;;;;;21.86;50.70;99991.21;117391;1185;24269;-56
2022/06/12 02:30:41;;;;;;;6.60;4.60;;;;;;;21.87;50.76;99993.23;117439;1186;22644;-53
2022/06/12 02:33:10;;;;;;;6.10;4.60;;;;;;;21.88;50.75;99994.99;117438;1186;23560;-50
2022/06/12 02:35:48;;;;;;;6.40;4.70;;;;;;;21.90;50.84;99992.71;117375;1185;23507;-56
2022/06/12 02:38:20;;;;;;;8.50;5.70;;;;;;;21.91;50.85;99990.12;117304;1182;22941;-56
2022/06/12 02:40:55;;;;;;;8.80;5.00;;;;;;;21.91;50.68;99994.23;117359;1183;23436;-57
2022/06/12 02:43:25;;;;;;;6.10;5.40;;;;;;;21.91;50.80;99991.55;117298;1185;21851;-57
2022/06/12 02:46:17;;;;;;;6.60;5.00;;;;;;;21.92;50.85;99993.10;117376;1185;21847;-56
2022/06/12 02:48:44;;;;;;;6.00;5.00;;;;;;;21.94;50.83;99990.16;117421;1182;23485;-56
2022/06/12 02:51:20;;;;;;;7.00;4.90;;;;;;;21.93;50.92;99990.55;117377;1183;22636;-57
2022/06/12 02:53:58;;;;;;;8.30;5.00;;;;;;;21.95;50.97;99990.59;117402;1188;21855;-57
2022/06/12 02:56:32;;;;;;;7.60;5.50;;;;;;;22.00;51.05;99985.47;117378;1186;21849;-56
2022/06/12 02:59:15;;;;;;;7.50;4.70;;;;;;;22.03;51.12;99982.75;117389;1183;22091;-57
2022/06/12 03:02:12;;;;;;;6.50;5.20;;;;;;;22.05;51.22;99984.60;117373;1182;22912;-57
2022/06/12 03:05:24;;;;;;;8.90;5.20;;;;;;;22.14;51.23;99983.85;117399;1184;23448;-57
2022/06/12 03:07:59;;;;;;;7.20;5.20;;;;;;;22.17;51.28;99981.27;117363;1183;21855;-57
2022/06/12 03:10:31;;;;;;;8.10;4.70;;;;;;;22.20;51.37;99977.86;117376;1185;24226;-57
2022/06/12 03:12:58;;;;;;;8.70;4.70;;;;;;;22.32;51.31;99974.08;117406;1185;23560;-57
2022/06/12 03:15:42;;;;;;;9.20;5.40;;;;;;;22.40;51.28;99971.48;117314;1183;23888;-57
2022/06/12 03:18:11;;;;;;;10.50;5.10;;;;;;;22.42;51.31;99972.64;117381;1182;22800;-52
2022/06/12 03:21:03;;;;;;;8.20;5.30;;;;;;;22.48;51.48;99972.79;117417;1186;22936;-51
2022/06/12 03:24:00;;;;;;;9.30;5.40;;;;;;;22.59;51.21;99967.91;117328;1185;24263;-52
2022/06/12 03:26:39;;;;;;;7.90;4.80;;;;;;;22.64;51.34;99967.94;117360;1186;22160;-56
2022/06/12 03:29:20;;;;;;;8.10;5.00;;;;;;;22.69;51.49;99970.61;117395;1186;22859;-56
2022/06/12 03:31:54;;;;;;;6.20;4.90;;;;;;;22.77;51.51;99973.67;117411;1186;22956;-56
2022/06/12 03:34:21;;;;;;;6.10;5.00;;;;;;;22.84;51.50;99973.17;117474;1186;23553;-57
2022/06/12 03:36:59;;;;;;;10.80;5.20;;;;;;;22.91;51.47;99975.06;117387;1186;21888;-57
2022/06/12 03:39:34;;;;;;;8.20;4.20;;;;;;;22.98;51.40;99980.09;118109;1185;21878;-57
2022/06/12 03:42:18;;;;;;;6.10;4.70;;;;;;;23.05;51.51;99977.66;117431;1183;22959;-52
2022/06/12 03:45:03;;;;;;;8.70;4.90;;;;;;;23.12;51.46;99978.96;117374;1184;21849;-52
2022/06/12 03:47:48;;;;;;;6.00;5.20;;;;;;;23.19;51.61;99979.15;118044;1183;21868;-52
2022/06/12 03:50:40;;;;;;;5.70;4.60;;;;;;;23.27;51.73;99979.11;117436;1183;24291;-57
2022/06/12 03:53:24;;;;;;;6.70;4.90;;;;;;;23.37;51.61;99979.28;117367;1183;23709;-52
2022/06/12 03:58:50;;;;;;;9.90;4.20;;;;;;;23.56;51.62;99981.69;117413;1186;21881;-57
2022/06/12 04:01:17;;;;;;;8.50;4.70;;;;;;;23.67;51.77;99981.03;117361;1183;23536;-56
2022/06/12 04:03:44;;;;;;;7.80;4.60;;;;;;;23.79;51.73;99978.61;117404;1186;21857;-53
2022/06/12 04:06:21;;;;;;;11.90;4.70;;;;;;;23.89;51.70;99978.20;117384;1185;21842;-54
2022/06/12 04:08:50;;;;;;;5.00;4.30;;;;;;;23.98;51.70;99976.64;117421;1186;23675;-53
2022/06/12 04:11:18;;;;;;;5.00;4.20;;;;;;;24.08;51.67;99980.92;117375;1183;22915;-53
2022/06/12 04:13:46;;;;;;;6.00;4.10;;;;;;;24.18;51.64;99983.44;117436;1185;21951;-56
2022/06/12 04:16:49;;;;;;;10.00;4.00;;;;;;;24.29;51.62;99981.39;117472;1186;23535;-57
2022/06/12 04:19:19;;;;;;;5.60;3.90;;;;;;;24.42;51.53;99981.60;117470;1182;21878;-56
2022/06/12 04:22:06;;;;;;;9.10;4.40;;;;;;;24.52;51.49;99978.34;117403;1182;22636;-57
2022/06/12 04:24:45;;;;;;;6.60;4.30;;;;;;;24.63;51.52;99976.10;117203;1188;21852;-56
2022/06/12 04:27:24;;;;;;;6.70;3.90;;;;;;;24.72;51.38;99975.27;117264;1185;21842;-52
2022/06/12 04:29:59;;;;;;;7.30;4.90;;;;;;;24.76;51.40;99979.02;117081;1184;23541;-53
2022/06/12 04:32:27;;;;;;;5.50;3.90;;;;;;;24.87;51.44;99983.03;117224;1182;22204;-57
2022/06/12 04:34:55;;;;;;;5.70;3.90;;;;;;;25.00;51.26;99982.94;117162;1184;22935;-54
2022/06/12 04:37:26;;;;;;;4.70;3.80;;;;;;;25.11;51.15;99984.57;117163;1184;22318;-56
2022/06/12 04:39:54;;;;;;;7.50;3.90;;;;;;;25.23;51.01;99984.70;117198;1182;22935;-53
2022/06/12 04:42:23;;;;;;;4.50;3.40;;;;;;;25.36;51.02;99986.58;117243;1182;22924;-57
2022/06/12 04:44:50;;;;;;;5.20;4.00;;;;;;;25.50;51.08;99988.10;117305;1183;21848;-57
2022/06/12 04:47:19;;;;;;;5.90;3.80;;;;;;;25.65;50.95;99989.41;117263;1186;23542;-54
2022/06/12 04:49:46;;;;;;;5.80;3.90;;;;;;;25.77;50.88;99988.09;117249;1185;23558;-57
2022/06/12 04:52:14;;;;;;;4.80;3.90;;;;;;;25.88;50.71;99987.39;117217;1186;21850;-57
2022/06/12 04:54:42;;;;;;;6.10;4.20;;;;;;;25.99;50.57;99991.11;117311;1186;23408;-57
2022/06/12 04:57:11;;;;;;;4.50;3.70;;;;;;;26.08;50.45;99995.02;117161;1186;22946;-57
2022/06/12 04:59:39;;;;;;;9.10;3.80;;;;;;;26.20;50.29;99997.84;117146;1183;23468;-53
2022/06/12 05:02:06;;;;;;;4.60;3.30;;;;;;;26.30;50.16;100000.27;117343;1184;22611;-54
2022/06/12 05:04:35;;;;;;;8.30;3.70;;;;;;;26.40;50.19;99997.63;117342;1186;23458;-55
2022/06/12 05:07:03;;;;;;;8.40;4.00;;;;;;;26.56;50.23;99998.29;117263;1184;21900;-58
2022/06/12 05:09:32;;;;;;;5.40;3.40;;;;;;;26.76;50.08;99998.15;117211;1188;21847;-55
2022/06/12 05:11:59;;;;;;;5.30;3.50;;;;;;;26.93;49.95;99999.80;117283;1183;23357;-55
2022/06/12 05:14:26;;;;;;;5.70;3.70;;;;;;;27.07;49.90;100003.46;117277;1184;23582;-57
2022/06/12 05:16:57;;;;;;;7.70;3.80;;;;;;;27.17;49.67;100002.39;117324;1185;21863;-54
2022/06/12 05:19:30;;;;;;;4.40;3.50;;;;;;;27.25;49.63;100002.59;117317;1186;21859;-57
2022/06/12 05:21:57;;;;;;;5.00;3.70;;;;;;;27.39;49.74;100001.68;117322;1186;22627;-55
2022/06/12 05:24:24;;;;;;;6.00;3.30;;;;;;;27.57;49.49;100004.45;117458;1186;22565;-57
2022/06/12 05:26:51;;;;;;;5.50;3.90;;;;;;;27.77;49.46;100006.61;117316;1183;21852;-54
2022/06/12 05:29:27;;;;;;;5.60;3.70;;;;;;;27.97;49.12;100008.09;117316;1183;22063;-55
2022/06/12 05:31:56;;;;;;;6.50;4.30;;;;;;;28.15;48.81;100013.47;117356;1185;22915;-55
2022/06/12 05:34:25;;;;;;;9.50;4.80;;;;;;;28.34;48.95;100008.89;117483;1182;24258;-57
2022/06/12 05:36:52;;;;;;;8.40;6.60;;;;;;;28.48;48.69;100007.34;117442;1186;21855;-54
2022/06/12 05:39:20;;;;;;;8.00;4.60;;;;;;;28.63;48.49;100010.71;117384;1186;21858;-54
2022/06/12 05:41:47;;;;;;;6.20;4.80;;;;;;;28.85;48.23;100009.00;117318;1186;22924;-57
2022/06/12 05:44:15;;;;;;;10.30;4.40;;;;;;;29.04;47.80;100009.40;117396;1185;21967;-56
2022/06/12 05:46:43;;;;;;;6.90;4.40;;;;;;;29.18;47.75;100007.48;117391;1183;21857;-57
2022/06/12 05:49:11;;;;;;;10.00;4.40;;;;;;;29.35;47.81;100011.10;117367;1186;21957;-54
2022/06/12 05:51:37;;;;;;;7.30;4.60;;;;;;;29.50;47.61;100009.63;117337;1186;22174;-54
2022/06/12 05:54:10;;;;;;;7.40;4.60;;;;;;;29.69;47.40;100007.65;117205;1186;21889;-57
2022/06/12 05:56:38;;;;;;;8.40;4.50;;;;;;;29.74;46.98;100003.88;117380;1185;23615;-57
2022/06/12 05:59:06;;;;;;;6.20;4.30;;;;;;;29.76;46.76;99999.44;117373;1182;23494;-57
2022/06/12 06:01:34;;;;;;;7.60;4.30;;;;;;;29.86;46.66;99992.20;117338;1185;21842;-57
2022/06/12 06:04:02;;;;;;;7.70;4.30;;;;;;;30.02;46.60;99993.02;117313;1183;22793;-58
2022/06/12 06:06:32;;;;;;;7.20;4.80;;;;;;;30.18;46.21;99997.70;118404;1184;21853;-55
2022/06/12 06:09:01;;;;;;;6.90;4.20;;;;;;;30.31;45.96;100001.09;117319;1183;21849;-56
2022/06/12 06:11:28;;;;;;;6.40;3.80;;;;;;;30.45;45.85;100004.36;117333;1185;23606;-57
2022/06/12 06:13:56;;;;;;;10.10;4.60;;;;;;;30.58;45.61;100006.34;117624;1182;22905;-55
2022/06/12 06:16:24;;;;;;;8.80;4.20;;;;;;;30.74;45.45;100011.04;117267;1183;22643;-53
2022/06/12 06:18:51;;;;;;;5.90;3.80;;;;;;;30.89;45.14;100010.79;117004;1188;21852;-56
2022/06/12 06:21:18;;;;;;;15.50;4.50;;;;;;;31.08;44.92;100009.48;117354;1183;22928;-54
2022/06/12 06:23:47;;;;;;;7.50;3.70;;;;;;;31.29;44.65;100009.91;117349;1186;21849;-56
2022/06/12 06:26:14;;;;;;;7.40;3.60;;;;;;;31.44;44.31;100014.46;117615;1182;22610;-55
2022/06/12 06:28:42;;;;;;;5.00;3.60;;;;;;;31.58;43.98;100018.05;117267;1185;21843;-55
2022/06/12 06:31:10;;;;;;;8.30;3.80;;;;;;;31.73;43.70;100014.29;117346;1185;21857;-57
2022/06/12 06:33:37;;;;;;;5.40;3.90;;;;;;;31.88;43.63;100014.75;117409;1186;21954;-57
2022/06/12 06:36:09;;;;;;;10.80;4.30;;;;;;;31.96;43.16;100013.70;117359;1182;22906;-57
2022/06/12 06:38:37;;;;;;;5.50;3.40;;;;;;;32.10;43.02;100014.11;117449;1185;21932;-57
2022/06/12 06:41:04;;;;;;;6.90;3.40;;;;;;;32.27;42.84;100016.63;117383;1182;22915;-56
2022/06/12 06:46:13;;;;;;;6.60;3.40;;;;;;;32.47;42.49;100015.91;117335;1183;21864;-56
2022/06/12 06:46:20;;;;;;;6.80;3.50;;;;;;;32.66;42.46;100012.72;117350;1186;24165;-57
2022/06/12 06:48:47;;;;;;;4.10;3.10;;;;;;;32.75;42.26;100009.50;117306;1188;21840;-56
2022/06/12 06:51:14;;;;;;;6.30;3.20;;;;;;;32.80;41.63;100011.71;117381;1182;23615;-56
2022/06/12 06:53:42;;;;;;;7.10;3.40;;;;;;;32.86;41.57;100011.97;117277;1182;21903;-58
2022/06/12 06:56:10;;;;;;;5.90;3.30;;;;;;;32.94;41.33;100018.52;117304;1185;22902;-57
2022/06/12 06:58:36;;;;;;;4.40;2.80;;;;;;;32.93;41.09;100020.33;117315;1185;22656;-57
2022/06/12 07:01:04;;;;;;;5.50;3.00;;;;;;;32.82;41.10;100020.77;117234;1185;21868;-55
2022/06/12 07:03:31;;;;;;;9.10;2.60;;;;;;;32.69;41.03;100027.98;117189;1185;24278;-54
2022/06/12 07:05:59;;;;;;;6.80;2.70;;;;;;;32.53;40.82;100028.46;117246;1185;22144;-54
2022/06/12 07:08:28;;;;;;;3.90;2.20;;;;;;;32.36;40.74;100028.56;117407;1186;21847;-56
2022/06/12 07:10:56;;;;;;;7.00;2.40;;;;;;;32.18;40.96;100028.63;117319;1186;22905;-56
2022/06/12 07:13:23;;;;;;;4.80;2.60;;;;;;;32.03;41.13;100027.83;117285;1185;22936;-55
2022/06/12 07:15:50;;;;;;;5.10;3.00;;;;;;;31.82;40.83;100028.37;117355;1186;21849;-57
2022/06/12 07:18:18;;;;;;;4.30;2.70;;;;;;;31.63;40.66;100027.89;117392;1186;21839;-58
2022/06/12 07:20:50;;;;;;;6.60;2.70;;;;;;;31.51;40.45;100025.46;117424;1182;22896;-55
2022/06/12 07:23:17;;;;;;;4.80;2.50;;;;;;;31.44;40.33;100024.75;117360;1186;21870;-56
2022/06/12 07:25:49;;;;;;;4.30;2.50;;;;;;;31.40;40.31;100024.09;117429;1186;22769;-58
2022/06/12 07:28:16;;;;;;;4.30;2.30;;;;;;;31.37;40.14;100022.41;117355;1186;22614;-55
2022/06/12 07:30:44;;;;;;;4.20;2.20;;;;;;;31.36;40.36;100019.85;117378;1185;21860;-54
2022/06/12 07:33:12;;;;;;;4.60;2.00;;;;;;;31.48;40.75;100013.99;117311;1186;23462;-57
2022/06/12 07:35:39;;;;;;;4.80;2.20;;;;;;;31.79;40.79;100011.66;117377;1182;23572;-55
2022/06/12 07:38:07;;;;;;;6.30;2.30;;;;;;;32.13;40.78;100006.89;117389;1186;22978;-57
2022/06/12 07:40:42;;;;;;;4.90;2.10;;;;;;;32.45;40.60;100007.80;117390;1183;22912;-56
2022/06/12 07:43:09;;;;;;;8.00;2.20;;;;;;;32.76;40.40;100004.13;117334;1184;22639;-54
2022/06/12 07:45:37;;;;;;;3.00;1.60;;;;;;;33.02;39.98;100003.45;117340;1185;22913;-56
2022/06/12 07:48:05;;;;;;;2.00;1.60;;;;;;;33.17;39.55;100001.38;117167;1185;21895;-54
2022/06/12 07:50:32;;;;;;;6.60;1.80;;;;;;;33.34;39.44;100000.36;117299;1185;21869;-54
2022/06/12 07:53:01;;;;;;;3.10;1.80;;;;;;;33.61;39.42;99997.39;117177;1185;22980;-55
2022/06/12 07:55:28;;;;;;;5.80;1.80;;;;;;;33.95;39.20;99997.39;117372;1183;22905;-55
2022/06/12 07:57:56;;;;;;;2.70;1.60;;;;;;;34.30;38.76;99996.69;117245;1184;21853;-56
2022/06/12 08:00:24;;;;;;;3.10;1.80;;;;;;;34.62;38.31;100000.76;117415;1186;21915;-54
2022/06/12 08:02:51;;;;;;;2.80;1.90;;;;;;;34.99;37.82;100004.48;117400;1182;22885;-54
2022/06/12 08:05:20;;;;;;;6.00;1.60;;;;;;;35.36;37.51;100003.27;117439;1179;21938;-53
2022/06/12 08:07:47;;;;;;;3.10;1.70;;;;;;;35.59;36.96;100003.02;117403;1183;21855;-54
2022/06/12 08:10:14;;;;;;;5.00;1.90;;;;;;;35.70;36.87;100005.70;117335;1186;21881;-54
2022/06/12 08:12:43;;;;;;;4.00;2.00;;;;;;;35.83;36.69;100008.58;117367;1184;23550;-57
2022/06/12 08:15:16;;;;;;;2.50;1.70;;;;;;;35.81;35.96;100012.05;118104;1182;23547;-54
2022/06/12 08:17:43;;;;;;;6.20;1.90;;;;;;;35.67;35.53;100008.95;117373;1185;22975;-54
2022/06/12 08:20:30;;;;;;;6.80;2.10;;;;;;;35.58;35.52;100009.56;117354;1185;22626;-54
2022/06/12 08:23:29;;;;;;;4.30;2.70;;;;;;;35.42;35.57;100009.23;117343;1184;23556;-55
2022/06/12 08:26:18;;;;;;;5.50;2.00;;;;;;;35.28;35.42;100012.31;117367;1186;21840;-55
2022/06/12 08:28:56;;;;;;;5.30;2.80;;;;;;;35.11;35.06;100015.63;117292;1186;23006;-54
2022/06/12 08:31:31;;;;;;;4.70;2.40;;;;;;;34.98;34.95;100016.18;117328;1182;22719;-56
2022/06/12 08:34:00;;;;;;;4.90;2.80;;;;;;;34.85;35.16;100013.54;117881;1185;23289;-56
2022/06/12 08:36:28;;;;;;;6.50;2.60;;;;;;;34.97;35.05;100014.96;118594;1183;22617;-54
2022/06/12 08:38:55;;;;;;;5.90;2.90;;;;;;;35.24;34.85;100012.10;117404;1181;22805;-54
2022/06/12 08:41:24;;;;;;;5.20;3.20;;;;;;;35.41;34.22;100013.08;117388;1186;23427;-55
2022/06/12 08:44:16;;;;;;;8.00;2.90;;;;;;;35.58;33.80;100013.39;117429;1186;22941;-58
2022/06/12 08:46:57;;;;;;;6.10;3.40;;;;;;;35.79;33.62;100014.39;117395;1186;21860;-55
2022/06/12 08:49:50;;;;;;;6.10;3.00;;;;;;;35.97;33.26;100012.62;117317;1182;21853;-55
2022/06/12 08:52:32;;;;;;;6.20;3.70;;;;;;;36.21;33.79;100003.63;117374;1185;22054;-54
2022/06/12 08:55:15;;;;;;;6.30;3.50;;;;;;;36.47;33.68;99999.98;117339;1180;22945;-55
2022/06/12 08:58:15;;;;;;;9.00;3.50;;;;;;;36.73;32.42;99999.30;117410;1185;22857;-60
2022/06/12 09:00:42;;;;;;;9.80;3.60;;;;;;;36.84;32.38;99994.53;117156;1186;22896;-55
2022/06/12 09:03:15;;;;;;;9.40;4.10;;;;;;;36.86;32.21;99989.65;117263;1186;22623;-56
2022/06/12 09:06:18;;;;;;;5.80;3.90;;;;;;;36.92;32.16;99989.71;117303;1186;24291;-58
2022/06/12 09:09:11;;;;;;;8.00;4.20;;;;;;;36.95;31.78;99987.98;117158;1186;21900;-54
2022/06/12 09:11:55;;;;;;;8.80;4.00;;;;;;;37.10;31.96;99981.32;117355;1182;22905;-55
2022/06/12 09:14:39;;;;;;;9.70;4.00;;;;;;;37.37;32.36;99976.60;117312;1181;21859;-55
2022/06/12 09:17:09;;;;;;;5.40;3.80;;;;;;;37.65;32.30;99978.43;117381;1185;21857;-55
2022/06/12 09:19:43;;;;;;;5.50;4.10;;;;;;;37.92;32.17;99980.27;117271;1186;21858;-54
2022/06/12 09:22:12;;;;;;;5.60;3.70;;;;;;;38.18;31.88;99979.89;117313;1186;21850;-55
2022/06/12 09:24:48;;;;;;;7.80;3.70;;;;;;;38.40;31.39;99980.08;117355;1183;21849;-55
2022/06/12 09:27:25;;;;;;;4.90;3.40;;;;;;;38.49;31.06;99980.66;117346;1185;22615;-57
2022/06/12 09:29:59;;;;;;;9.70;4.30;;;;;;;38.61;31.09;99976.45;117327;1184;23031;-54
2022/06/12 09:32:27;;;;;;;8.00;4.40;;;;;;;38.77;31.18;99976.27;117344;1185;23322;-57
2022/06/12 09:34:59;;;;;;;9.70;3.80;;;;;;;38.92;30.84;99975.41;117308;1186;21932;-58
2022/06/12 09:40:31;;;;;;;5.30;3.80;;;;;;;39.19;30.27;99974.13;117409;1185;23747;-58
2022/06/12 09:43:00;;;;;;;8.90;3.80;;;;;;;39.40;30.07;99972.33;117571;1182;22613;-56
2022/06/12 09:45:40;;;;;;;4.80;3.70;;;;;;;39.46;30.09;99966.75;117508;1185;22949;-54
2022/06/12 09:48:19;;;;;;;6.50;3.80;;;;;;;39.58;29.78;99964.86;117437;1182;23435;-55
2022/06/12 09:51:16;;;;;;;6.40;3.90;;;;;;;39.63;29.47;99964.53;117380;1185;22902;-54
2022/06/12 09:54:05;;;;;;;7.70;4.00;;;;;;;39.65;29.08;99964.30;117283;1186;22666;-57
2022/06/12 09:56:39;;;;;;;7.30;3.90;;;;;;;39.67;28.83;99960.77;117365;1179;22932;-57
2022/06/12 09:59:12;;;;;;;7.90;3.80;;;;;;;39.76;29.21;99958.40;117352;1184;21847;-56
2022/06/12 10:01:41;;;;;;;6.60;3.60;;;;;;;40.05;29.26;99957.23;117362;1183;23507;-58
2022/06/12 10:04:26;;;;;;;10.10;4.10;;;;;;;40.30;29.26;99956.38;117299;1183;21846;-56
2022/06/12 10:06:59;;;;;;;5.90;3.50;;;;;;;40.54;28.95;99951.56;117387;1183;22984;-58
2022/06/12 10:09:30;;;;;;;9.10;4.10;;;;;;;40.70;28.58;99953.12;117319;1185;22869;-54
2022/06/12 10:12:07;;;;;;;7.30;3.90;;;;;;;40.70;27.81;99950.91;117371;1186;21858;-54
2022/06/12 10:14:41;;;;;;;8.30;3.60;;;;;;;40.63;27.69;99946.05;117301;1185;22925;-54
2022/06/12 10:17:21;;;;;;;6.30;3.80;;;;;;;40.50;27.71;99942.83;117339;1188;22862;-55
2022/06/12 10:19:51;;;;;;;;;;;;;;;40.40;27.41;99941.10;117369;1184;21833;-55
2022/06/12 10:22:20;;;;;;;6.40;3.80;;;;;;;40.39;27.66;99935.67;117355;1186;22938;-55
2022/06/12 10:24:56;;;;;;;6.10;3.90;;;;;;;40.51;27.26;99931.14;117295;1184;21843;-55
2022/06/12 10:27:23;;;;;;;5.60;3.90;;;;;;;40.66;26.76;99925.52;117329;1186;21855;-55
2022/06/12 10:29:53;;;;;;;8.40;4.40;;;;;;;40.78;27.04;99915.48;117101;1184;21882;-54
2022/06/12 10:32:21;;;;;;;;;;;;;;;40.94;26.93;99911.81;117292;1183;22987;-53
2022/06/12 10:34:49;;;;;;;5.50;4.00;;;;;;;41.07;26.58;99911.77;117354;1186;24279;-54
2022/06/12 10:37:17;;;;;;;5.70;3.90;;;;;;;41.13;26.41;99913.16;117052;1186;21867;-55
2022/06/12 10:39:45;;;;;;;6.70;3.80;;;;;;;41.28;26.54;99904.45;117357;1182;21979;-56
2022/06/12 10:42:34;;;;;;;5.90;3.80;;;;;;;41.54;26.38;99901.42;117254;1184;22875;-54
2022/06/12 10:45:01;;;;;;;5.70;3.80;;;;;;;41.90;26.11;99897.45;117842;1182;22889;-54
2022/06/12 10:47:32;;;;;;;10.10;4.30;;;;;;;42.25;25.80;99893.21;117212;1182;23647;-54
2022/06/12 10:50:24;;;;;;;7.60;4.20;;;;;;;42.44;25.53;99889.67;117240;1186;21861;-55
2022/06/12 10:52:55;;;;;;;6.50;3.70;;;;;;;42.67;25.28;99886.14;117250;1184;23545;-56
2022/06/12 10:55:59;;;;;;;6.20;3.50;;;;;;;42.86;25.10;99891.05;117230;1184;21851;-55
2022/06/12 10:58:42;;;;;;;8.70;4.20;;;;;;;42.92;24.56;99891.86;117293;1183;22068;-55
2022/06/12 11:01:23;;;;;;;7.10;3.80;;;;;;;42.80;24.52;99888.02;117309;1185;21886;-56
2022/06/12 11:04:01;;;;;;;7.00;4.10;;;;;;;42.89;24.42;99886.73;117287;1185;21967;-55
2022/06/12 11:06:46;;;;;;;5.30;3.80;;;;;;;43.11;24.30;99882.02;117365;1183;21948;-56
2022/06/12 11:09:23;;;;;;;11.80;5.00;;;;;;;43.36;23.94;99880.18;117302;1182;23702;-55
2022/06/12 11:12:24;;;;;;;9.00;4.70;;;;;;;43.23;23.28;99882.91;117383;1182;21849;-58
2022/06/12 11:14:57;;;;;;;6.90;4.70;;;;;;;42.50;23.36;99886.54;117176;1182;24160;-57
2022/06/12 11:17:43;;;;;;;5.80;4.50;;;;;;;41.95;23.86;99885.17;117253;1185;22780;-56
2022/06/12 11:20:29;;;;;;;7.30;4.40;;;;;;;41.30;24.02;99889.52;117228;1185;23711;-55
2022/06/12 11:23:01;;;;;;;10.20;5.10;;;;;;;40.48;24.23;99895.28;117346;1183;21849;-56
2022/06/12 11:25:54;;;;;;;8.70;4.50;;;;;;;39.67;24.62;99902.02;117243;1185;21852;-54
2022/06/12 11:29:00;;;;;;;8.90;4.90;;;;;;;38.89;24.92;99898.71;117476;1185;22979;-57
2022/06/12 11:31:30;;;;;;;7.40;4.30;;;;;;;37.96;25.40;99893.05;117298;1185;22915;-54
2022/06/12 11:34:30;;;;;;;5.70;4.30;;;;;;;37.27;25.69;99892.77;117335;1182;22771;-54
2022/06/12 11:37:28;;;;;;;9.90;5.10;;;;;;;36.62;25.97;99892.83;117361;1185;22918;-55
2022/06/12 11:40:25;;;;;;;6.50;4.80;;;;;;;36.16;26.19;99891.13;117334;1183;23633;-53
2022/06/12 11:43:38;;;;;;;6.30;4.60;;;;;;;35.82;26.35;99884.25;117202;1185;21853;-56
2022/06/12 11:46:26;;;;;;;8.60;4.50;;;;;;;35.53;26.43;99882.42;117296;1186;23025;-55
2022/06/12 11:49:09;;;;;;;6.60;4.40;;;;;;;35.36;26.73;99878.90;117352;1186;22933;-55
2022/06/12 11:51:55;;;;;;;6.10;4.60;;;;;;;35.26;26.88;99873.31;117366;1185;22745;-53
2022/06/12 11:54:42;;;;;;;8.30;4.60;;;;;;;35.28;27.24;99871.57;117228;1183;21890;-54
2022/06/12 11:57:29;;;;;;;6.30;4.20;;;;;;;35.55;27.24;99860.33;117173;1185;21878;-56
2022/06/12 12:00:13;;;;;;;7.50;4.40;;;;;;;35.99;27.59;99854.08;117356;1186;21978;-56
2022/06/12 12:03:09;;;;;;;6.70;4.80;;;;;;;36.51;27.39;99842.00;117352;1186;21852;-56
2022/06/12 12:05:51;;;;;;;8.50;4.50;;;;;;;37.08;27.09;99837.89;117286;1184;23445;-54
2022/06/12 12:08:22;;;;;;;7.30;4.20;;;;;;;37.54;26.60;99831.95;117415;1183;21939;-53